Latest Weather Observations for Maitland Airport

IDN60801

Issued at 2:52 am EDT Saturday 29 February 2020 (issued every 10 minutes, with the page automatically refreshed every 10 minutes)

About weather observations | Map of weather stations | Latest weather observations for NSW | Other Formats
Station Details ID: 061428 Name: MAITLAND AIRPORT AWS Lat: -32.70 Lon: 151.49 Height: 27.5 m
Data from the previous 72 hours. | See also: Recent months at Maitland Airport
Date/Time
EDT
Temp
°C
App
Temp
°C
Dew
Point
°C
Rel
Hum
%
Delta-T
°C
Wind Press
QNH
hPa
Press
MSL
hPa
Rain since
9am
mm
Dir  Spd
km/h
Gust
km/h
Spd
kts
Gust
kts
29/02:30am 16.4 18.1 15.1 92 0.8 CALM 0 0 0 0 1016.2 1016.1 0.0
29/02:00am 16.7 18.4 15.2 91 0.9 CALM 0 0 0 0 1016.2 1016.1 0.0
29/01:30am 17.3 19.0 15.3 88 1.2 CALM 0 0 0 0 1016.4 1016.3 0.0
29/01:00am 18.4 20.3 15.8 85 1.5 CALM 0 0 0 0 1016.4 1016.3 0.0
29/12:30am 19.0 21.0 16.0 83 1.8 CALM 0 0 0 0 1016.4 1016.3 0.0
29/12:00am 19.2 21.6 17.0 87 1.3 CALM 0 0 0 0 1016.5 1016.4 0.0
 
Date/Time
EDT
Temp
°C
App
Temp
°C
Dew
Point
°C
Rel
Hum
%
Delta-T
°C
Wind Press
QNH
hPa
Press
MSL
hPa
Rain since
9am
mm
Dir  Spd
km/h
Gust
km/h
Spd
kts
Gust
kts
28/11:30pm 19.5 22.0 17.3 87 1.3 CALM 0 0 0 0 1016.6 1016.5 0.0
28/11:00pm 19.1 21.1 16.0 82 1.8 CALM 0 0 0 0 1016.6 1016.5 0.0
28/10:30pm 20.2 20.7 15.6 75 2.7 SE 7 9 4 5 1016.6 1016.5 0.0
28/10:00pm 21.1 21.4 15.9 72 3.1 SE 9 11 5 6 1016.4 1016.3 0.0
28/09:30pm 21.1 21.2 15.6 71 3.3 SE 9 13 5 7 1016.1 1016.0 0.0
28/09:00pm 21.1 20.9 15.6 71 3.3 SE 11 15 6 8 1015.6 1015.5 0.0
28/08:30pm 21.1 21.2 15.6 71 3.3 SE 9 15 5 8 1014.9 1014.8 0.0
28/08:00pm 21.2 20.5 15.5 70 3.4 SE 13 20 7 11 1014.4 1014.3 0.0
28/07:30pm 22.1 20.2 15.7 67 3.8 SE 20 32 11 17 1013.8 1013.7 0.0
28/07:00pm 22.7 20.3 16.3 67 3.9 SE 24 33 13 18 1013.2 1013.1 0.0
28/06:30pm 23.4 21.5 16.7 66 4.1 SE 22 32 12 17 1012.8 1012.7 0.0
28/06:00pm 24.6 21.3 16.1 59 5.2 ESE 28 37 15 20 1012.3 1012.2 0.0
28/05:30pm 25.3 22.2 14.4 50 6.5 SE 24 33 13 18 1011.8 1011.7 0.0
28/05:00pm 25.7 22.9 14.2 49 6.8 SSE 22 30 12 16 1011.4 1011.3 0.0
28/04:30pm 25.8 22.9 14.0 48 7.0 SE 22 30 12 16 1011.1 1011.0 0.0
28/04:00pm 26.1 22.4 13.9 47 7.2 SE 26 35 14 19 1010.8 1010.7 0.0
28/03:30pm 26.9 24.2 12.9 42 8.2 SE 19 32 10 17 1010.7 1010.6 0.0
28/03:00pm 26.8 23.5 11.7 39 8.7 ESE 20 26 11 14 1010.8 1010.7 0.0
28/02:30pm 26.9 23.8 13.3 43 8.0 SE 22 33 12 18 1010.8 1010.7 0.0
28/02:00pm 27.3 25.1 13.3 42 8.3 SE 17 28 9 15 1010.6 1010.5 0.0
28/01:30pm 26.8 24.2 9.2 33 9.7 E 13 20 7 11 1010.6 1010.5 0.0
28/01:00pm 26.8 23.8 9.2 33 9.7 SE 15 22 8 12 1010.9 1010.8 0.0
28/12:30pm 26.6 25.4 10.3 36 9.1 ENE 7 15 4 8 1011.0 1010.9 0.0
28/12:00pm 26.0 24.1 8.9 34 9.3 SSE 9 19 5 10 1011.2 1011.1 0.0
28/11:30am 25.4 23.8 10.1 38 8.5 SE 9 13 5 7 1011.4 1011.3 0.0
28/11:00am 24.9 23.7 11.5 43 7.6 SE 9 13 5 7 1011.3 1011.2 0.0
28/10:30am 24.2 23.9 13.4 51 6.3 SSW 7 13 4 7 1011.1 1011.0 0.0
28/10:00am 23.1 23.3 14.7 59 5.0 WNW 7 13 4 7 1011.1 1011.0 0.0
28/09:30am 21.5 21.6 17.5 78 2.5 WNW 13 17 7 9 1010.8 1010.7 0.0
28/09:00am 19.9 20.1 18.6 92 0.8 WNW 15 20 8 11 1010.5 1010.4 0.2
28/08:30am 18.8 19.0 18.6 99 0.1 WNW 15 20 8 11 1010.2 1010.1 0.2
28/08:18am 18.4 18.5 18.4 100 0.0 WNW 15 20 8 11 1010.0 1009.9 0.2
28/08:15am 18.6 19.2 18.6 100 0.0 WNW 13 20 7 11 1009.9 1009.8 0.2
28/08:00am 18.1 18.9 18.1 100 0.0 W 11 17 6 9 1009.8 1009.7 0.2
28/07:30am 17.7 18.3 17.7 100 0.0 W 11 15 6 8 1009.7 1009.6 0.2
28/07:00am 17.3 17.7 17.3 100 0.0 NNW 11 15 6 8 1009.3 1009.2 0.2
28/06:35am 16.8 17.8 16.8 100 0.0 NNW 7 9 4 5 1008.8 1008.7 0.2
28/06:30am 16.7 17.6 16.7 100 0.0 NNW 7 9 4 5 1008.7 1008.6 0.2
28/06:29am 16.8 17.8 16.8 100 0.0 NNW 7 9 4 5 1008.7 1008.6 0.2
28/06:00am 17.5 19.0 17.5 100 0.0 NNW 6 11 3 6 1008.1 1008.0 0.2
28/05:30am 17.6 18.5 17.6 100 0.0 N 9 13 5 7 1007.8 1007.7 0.2
28/05:14am 17.6 18.9 17.6 100 0.0 NE 7 11 4 6 1007.7 1007.6 0.2
28/05:00am 17.2 19.3 17.2 100 0.0 NE 2 9 1 5 1007.5 1007.4 0.2
28/04:37am 16.6 18.8 16.4 99 0.1 CALM 0 0 0 0 1007.5 1007.4 0.2
28/04:32am 16.4 18.5 16.2 99 0.1 CALM 0 0 0 0 1007.5 1007.4 0.2
28/04:30am 16.4 18.5 16.2 99 0.1 CALM 0 0 0 0 1007.5 1007.4 0.2
28/04:13am 17.1 19.5 17.1 100 0.0 CALM 0 6 0 3 1007.4 1007.3 0.2
28/04:00am 17.8 19.4 17.8 100 0.0 NE 6 9 3 5 1007.3 1007.2 0.2
28/03:30am 17.6 18.5 17.6 100 0.0 NE 9 11 5 6 1007.3 1007.2 0.2
28/03:00am 17.2 19.6 17.0 99 0.1 CALM 0 0 0 0 1007.3 1007.2 0.2
28/02:30am 17.1 19.4 16.8 98 0.2 CALM 0 0 0 0 1007.2 1007.1 0.2
28/02:00am 17.3 19.7 17.0 98 0.2 CALM 0 0 0 0 1007.2 1007.1 0.2
28/01:30am 18.2 19.3 18.0 99 0.1 NE 9 9 5 5 1007.6 1007.5 0.2
28/01:00am 18.0 19.9 17.7 98 0.2 NE 4 7 2 4 1007.9 1007.8 0.2
28/12:30am 18.2 20.9 17.7 97 0.3 CALM 0 0 0 0 1007.9 1007.8 0.2
28/12:00am 18.5 20.5 17.9 96 0.4 NE 4 7 2 4 1008.1 1008.0 0.2
 
Date/Time
EDT
Temp
°C
App
Temp
°C
Dew
Point
°C
Rel
Hum
%
Delta-T
°C
Wind Press
QNH
hPa
Press
MSL
hPa
Rain since
9am
mm
Dir  Spd
km/h
Gust
km/h
Spd
kts
Gust
kts
27/11:30pm 18.9 20.5 18.2 96 0.4 NE 7 9 4 5 1008.2 1008.1 0.2
27/11:00pm 19.2 20.9 18.4 95 0.5 NE 7 9 4 5 1008.2 1008.1 0.2
27/10:30pm 19.4 20.7 18.4 94 0.6 NE 9 9 5 5 1008.1 1008.0 0.2
27/10:00pm 19.7 21.5 18.4 92 0.8 NE 6 7 3 4 1008.1 1008.0 0.2
27/09:30pm 20.4 22.9 18.2 87 1.4 NE 2 9 1 5 1007.9 1007.8 0.2
27/09:00pm 21.1 24.1 18.5 85 1.6 CALM 0 0 0 0 1007.7 1007.6 0.2
27/08:30pm 21.4 24.4 18.4 83 1.9 CALM 0 0 0 0 1007.5 1007.4 0.2
27/08:00pm 21.2 23.1 18.6 85 1.6 NE 6 9 3 5 1007.3 1007.2 0.2
27/07:30pm 22.3 22.9 18.7 80 2.3 NE 13 13 7 7 1007.1 1007.0 0.2
27/07:00pm 23.8 23.9 18.4 72 3.4 ENE 15 20 8 11 1006.9 1006.8 0.2
27/06:30pm 24.5 24.3 18.4 69 3.9 ENE 17 20 9 11 1006.8 1006.7 0.2
27/06:00pm 25.0 24.9 18.7 68 4.0 ENE 17 22 9 12 1006.7 1006.6 0.2
27/05:30pm 25.1 24.5 18.5 67 4.2 E 19 26 10 14 1006.7 1006.6 0.2
27/05:00pm 25.2 25.3 18.4 66 4.3 ENE 15 20 8 11 1006.9 1006.8 0.2
27/04:30pm 25.0 24.5 17.7 64 4.6 E 17 22 9 12 1007.1 1007.0 0.2
27/04:00pm 24.8 24.1 17.3 63 4.7 SE 17 28 9 15 1007.5 1007.4 0.2
27/03:30pm 24.4 24.7 17.1 63 4.5 ESE 11 15 6 8 1008.0 1007.9 0.2
27/03:00pm 24.4 24.5 18.3 69 3.9 SE 15 20 8 11 1008.4 1008.3 0.2
27/02:30pm 25.3 25.7 18.2 64 4.5 NE 13 17 7 9 1008.6 1008.5 0.2
27/02:00pm 25.2 26.2 17.7 63 4.7 NE 9 17 5 9 1009.1 1009.0 0.2
27/01:30pm 24.7 26.3 17.9 66 4.3 SE 6 9 3 5 1009.5 1009.4 0.2
27/01:00pm 24.0 25.0 17.7 68 3.9 S 9 15 5 8 1010.0 1009.9 0.0
27/12:30pm 23.1 24.1 16.9 68 3.8 SE 7 17 4 9 1010.6 1010.5 0.0
27/12:00pm 22.4 23.7 17.1 72 3.3 SSE 6 13 3 7 1010.9 1010.8 0.0
27/11:30am 21.3 22.8 17.5 79 2.3 NE 6 9 3 5 1011.4 1011.3 0.0
27/11:00am 20.5 21.0 17.5 83 1.8 NE 11 13 6 7 1011.7 1011.6 0.0
27/10:30am 20.9 22.5 16.9 78 2.4 ESE 4 9 2 5 1011.7 1011.6 0.0
27/10:00am 21.0 22.3 17.0 78 2.4 S 6 17 3 9 1011.7 1011.6 0.0
27/09:30am 20.6 21.3 16.2 76 2.6 S 7 11 4 6 1011.6 1011.5 0.0
27/09:00am 20.4 21.2 16.4 78 2.4 S 7 11 4 6 1011.5 1011.4 0.2
27/08:30am 20.2 20.6 16.2 78 2.4 S 9 13 5 7 1011.4 1011.3 0.2
27/08:00am 20.2 20.3 16.6 80 2.2 S 11 15 6 8 1011.2 1011.1 0.2
27/07:30am 19.9 20.5 16.7 82 1.9 S 9 13 5 7 1011.2 1011.1 0.2
27/07:00am 19.6 20.2 16.8 84 1.7 S 9 11 5 6 1011.0 1010.9 0.2
27/06:30am 19.4 20.5 17.0 86 1.5 S 7 11 4 6 1010.8 1010.7 0.2
27/06:00am 19.4 20.7 17.2 87 1.3 S 6 9 3 5 1010.5 1010.4 0.2
27/05:32am 19.4 20.6 17.4 88 1.2 S 7 11 4 6 1010.2 1010.1 0.2
27/05:30am 19.4 20.6 17.4 88 1.2 S 7 11 4 6 1010.2 1010.1 0.2
27/05:00am 19.4 20.2 17.4 88 1.2 S 9 11 5 6 1010.1 1010.0 0.2
27/04:57am 19.4 20.2 17.4 88 1.2 S 9 11 5 6 1010.1 1010.0 0.2
27/04:30am 19.4 19.9 17.4 88 1.2 S 11 20 6 11 1010.0 1009.9 0.2
27/04:00am 19.6 20.1 17.4 87 1.3 S 11 17 6 9 1010.0 1009.9 0.2
27/03:30am 19.7 20.2 17.5 87 1.3 S 11 15 6 8 1010.3 1010.2 0.2
27/03:00am 19.9 19.6 17.3 85 1.6 S 15 20 8 11 1010.0 1009.9 0.2
27/02:30am 20.3 20.3 17.3 83 1.8 SSW 13 20 7 11 1009.7 1009.6 0.2
27/02:00am 20.7 20.7 17.3 81 2.1 S 13 20 7 11 1009.5 1009.4 0.2
27/01:30am 20.9 19.8 17.3 80 2.2 S 19 26 10 14 1009.7 1009.6 0.2
27/01:00am 20.9 19.7 17.5 81 2.1 S 20 28 11 15 1009.7 1009.6 0.2
27/12:30am 21.1 21.9 18.1 83 1.9 S 11 20 6 11 1009.6 1009.5 0.2
27/12:00am 21.1 20.7 18.1 83 1.9 SSE 17 26 9 14 1009.3 1009.2 0.2
 
Date/Time
EDT
Temp
°C
App
Temp
°C
Dew
Point
°C
Rel
Hum
%
Delta-T
°C
Wind Press
QNH
hPa
Press
MSL
hPa
Rain since
9am
mm
Dir  Spd
km/h
Gust
km/h
Spd
kts
Gust
kts
26/11:30pm 21.5 20.3 18.3 82 2.0 SSE 22 30 12 16 1008.8 1008.7 0.2
26/11:00pm 22.6 21.6 18.8 79 2.4 SSE 22 33 12 18 1008.4 1008.3 0.2
26/10:30pm 23.3 23.7 19.0 77 2.7 WSW 15 28 8 15 1007.3 1007.2 0.2
26/10:00pm 23.9 25.2 19.2 75 3.0 W 11 17 6 9 1006.5 1006.4 0.2
26/09:30pm 24.2 24.8 19.5 75 3.0 W 15 20 8 11 1006.3 1006.1 0.2
26/09:00pm 24.0 25.2 19.9 78 2.7 WNW 13 20 7 11 1006.0 1005.8 0.2
26/08:30pm 24.0 26.2 19.5 76 2.9 WNW 7 11 4 6 1005.7 1005.5 0.2
26/08:00pm 24.3 26.1 19.6 75 3.0 WNW 9 15 5 8 1005.5 1005.3 0.2
26/07:30pm 24.4 25.8 19.5 74 3.1 WNW 11 15 6 8 1005.4 1005.2 0.2
26/07:00pm 24.8 26.1 19.4 72 3.5 NW 11 17 6 9 1005.6 1005.4 0.2
26/06:30pm 25.1 26.0 19.2 70 3.8 NW 13 20 7 11 1005.2 1005.0 0.2
26/06:00pm 25.4 26.3 20.0 72 3.5 NW 15 26 8 14 1005.3 1005.1 0.2
26/05:30pm 25.3 27.3 19.9 72 3.5 NW 9 13 5 7 1005.5 1005.3 0.2
26/05:00pm 25.2 28.0 19.6 71 3.6 NW 4 11 2 6 1005.5 1005.3 0.2
26/04:30pm 25.2 27.3 19.3 70 3.8 NW 7 13 4 7 1004.9 1004.7 0.2
26/04:00pm 24.5 24.2 19.1 72 3.5 NW 19 32 10 17 1004.2 1004.0 0.2
26/03:32pm 27.7 25.1 17.8 54 6.3 NW 28 57 15 31 1005.0 1004.8 0.0
26/03:30pm 29.4 28.1 19.1 54 6.7 NW 24 44 13 24 1005.0 1004.8 0.0
26/03:00pm 30.9 30.7 19.3 50 7.6 NNW 19 32 10 17 1004.2 1004.0 0.0
26/02:30pm 31.3 30.0 19.0 48 8.0 NW 24 35 13 19 1004.6 1004.4 0.0
26/02:00pm 31.4 30.6 20.0 50 7.6 NW 24 35 13 19 1004.9 1004.7 0.0
26/01:30pm 31.7 31.1 20.6 51 7.4 NW 24 32 13 17 1005.5 1005.3 0.0
26/01:00pm 31.6 30.4 20.8 52 7.2 NW 28 43 15 23 1005.9 1005.7 0.0
26/12:30pm 30.7 29.1 20.0 52 7.1 NW 28 41 15 22 1006.2 1006.0 0.0
26/12:00pm 30.9 30.2 20.2 53 7.1 NW 24 41 13 22 1006.9 1006.8 0.0
26/11:30am 30.1 28.7 20.4 56 6.4 NW 28 41 15 22 1007.6 1007.5 0.0
26/11:00am 29.5 29.6 21.2 61 5.6 NW 22 32 12 17 1008.0 1007.9 0.0
26/10:30am 28.0 28.2 20.6 64 4.9 NW 20 35 11 19 1008.4 1008.3 0.0
26/10:00am 26.3 27.4 20.4 70 3.9 NW 15 20 8 11 1008.5 1008.4 0.0
26/09:30am 24.9 25.7 19.9 74 3.2 WNW 15 20 8 11 1008.8 1008.7 0.0
26/09:00am 24.4 26.1 20.1 77 2.8 NW 11 17 6 9 1008.8 1008.7 0.2
26/08:30am 23.6 25.9 20.7 84 1.9 NNW 9 13 5 7 1008.9 1008.8 0.2
26/08:00am 21.1 23.6 20.3 95 0.5 ENE 7 9 4 5 1009.1 1009.0 0.2
26/07:30am 20.1 23.9 20.1 100 0.0 CALM 0 0 0 0 1009.1 1009.0 0.2
26/07:00am 19.3 22.7 19.3 100 0.0 CALM 0 0 0 0 1009.0 1008.9 0.2
26/06:35am 18.7 21.8 18.7 100 0.0 CALM 0 0 0 0 1008.9 1008.8 0.2
26/06:30am 18.7 21.8 18.7 100 0.0 CALM 0 0 0 0 1008.8 1008.7 0.2
26/06:16am 18.7 21.8 18.7 100 0.0 CALM 0 0 0 0 1008.8 1008.7 0.2
26/06:00am 19.1 22.4 19.1 100 0.0 CALM 0 0 0 0 1008.8 1008.7 0.2
26/05:53am 19.4 22.8 19.4 100 0.0 CALM 0 0 0 0 1008.8 1008.7 0.2
26/05:34am 18.8 21.9 18.6 99 0.1 CALM 0 0 0 0 1008.8 1008.7 0.2
26/05:30am 18.7 21.7 18.5 99 0.1 CALM 0 0 0 0 1008.8 1008.7 0.2
26/05:00am 19.2 22.5 19.2 100 0.0 CALM 0 0 0 0 1008.8 1008.7 0.2
26/04:30am 19.1 22.3 18.9 99 0.1 CALM 0 0 0 0 1008.8 1008.7 0.2
26/04:00am 19.5 22.9 19.3 99 0.1 CALM 0 0 0 0 1008.9 1008.8 0.2
26/03:30am 19.2 22.5 19.0 99 0.1 CALM 0 0 0 0 1009.1 1009.0 0.2
26/03:00am 19.6 23.0 19.4 99 0.1 CALM 0 0 0 0 1009.3 1009.2 0.2

Other formats

Comma delimited format used in spreadsheet applications
http://www.bom.gov.au/fwo/IDN60801/IDN60801.94650.axf

JavaScript Object Notation format (JSON) in row-major order
http://www.bom.gov.au/fwo/IDN60801/IDN60801.94650.json

Data quality

Most of these data are generated automatically and are frequently updated. Quality checks on data are not normally performed. It is possible for incorrect values to appear. Refer to information at About Latest Weather Observations and please check the disclaimer before using these data.